createdAt,value
2019-05-29T00:00:29.067Z,98900.07
2019-05-29T00:02:58.480Z,98900.84
2019-05-29T00:05:27.774Z,98909.55
2019-05-29T00:07:57.384Z,98904.16
2019-05-29T00:10:26.561Z,98911.45
2019-05-29T00:12:55.956Z,98910.13
2019-05-29T00:15:25.473Z,98915.91
2019-05-29T00:17:54.895Z,98923.20
2019-05-29T00:20:24.274Z,98925.48
2019-05-29T00:22:53.983Z,98924.05
2019-05-29T00:25:23.383Z,98923.79
2019-05-29T00:27:52.905Z,98925.67
2019-05-29T00:30:22.304Z,98925.11
2019-05-29T00:32:51.585Z,98926.52
2019-05-29T00:35:21.104Z,98929.25
2019-05-29T00:37:50.305Z,98931.05
2019-05-29T00:40:20.218Z,98936.36
2019-05-29T00:42:49.423Z,98942.98
2019-05-29T00:45:18.829Z,98944.97
2019-05-29T00:47:48.227Z,98941.19
2019-05-29T00:50:18.147Z,98946.97
2019-05-29T00:52:47.535Z,98951.24
2019-05-29T00:55:17.063Z,98954.09
2019-05-29T00:57:46.559Z,98942.33
2019-05-29T01:00:17.363Z,98951.42
2019-05-29T01:02:47.382Z,98951.05
2019-05-29T01:05:18.075Z,98947.42
2019-05-29T01:07:47.704Z,98949.72
2019-05-29T01:10:17.170Z,98951.10
2019-05-29T01:12:46.518Z,98948.75
2019-05-29T01:15:17.402Z,98947.53
2019-05-29T01:17:46.870Z,98956.03
2019-05-29T01:20:16.489Z,98954.44
2019-05-29T01:22:45.983Z,98961.64
2019-05-29T01:25:16.504Z,98958.03
2019-05-29T01:27:46.214Z,98964.37
2019-05-29T01:30:17.219Z,98967.70
2019-05-29T01:32:46.886Z,98969.38
2019-05-29T01:35:16.388Z,98967.67
2019-05-29T01:37:45.866Z,98976.95
2019-05-29T01:40:19.936Z,98976.58
2019-05-29T01:42:49.789Z,98988.48
2019-05-29T01:45:19.465Z,98982.97
2019-05-29T01:47:48.897Z,98987.53
2019-05-29T01:50:19.377Z,98986.78
2019-05-29T01:52:49.135Z,98994.38
2019-05-29T01:55:19.746Z,98987.95
2019-05-29T01:57:49.276Z,98998.94
2019-05-29T02:00:20.131Z,99002.54
2019-05-29T02:02:49.621Z,99009.04
2019-05-29T02:05:20.023Z,99013.02
2019-05-29T02:07:49.523Z,99022.67
2019-05-29T02:10:20.258Z,99023.34
2019-05-29T02:12:49.294Z,99032.12
2019-05-29T02:15:25.967Z,99028.82
2019-05-29T02:17:49.714Z,99038.84
2019-05-29T02:20:21.277Z,99042.05
2019-05-29T02:22:50.654Z,99041.56
2019-05-29T02:25:22.401Z,99052.81
2019-05-29T02:27:51.614Z,99056.63
2019-05-29T02:30:23.634Z,99056.08
2019-05-29T02:32:53.547Z,99072.84
2019-05-29T02:35:24.619Z,99072.53
2019-05-29T02:37:54.035Z,99076.88
2019-05-29T02:40:25.618Z,99084.59
2019-05-29T02:42:54.226Z,99093.67
2019-05-29T02:45:26.260Z,99090.41
2019-05-29T02:47:54.515Z,99103.59
2019-05-29T02:50:24.192Z,99107.56
2019-05-29T02:52:55.356Z,99108.31
2019-05-29T02:55:24.788Z,99107.36
2019-05-29T02:57:55.148Z,99113.57
2019-05-29T03:00:43.796Z,99120.51
2019-05-29T03:03:13.314Z,99121.08
2019-05-29T03:05:43.155Z,99130.42
2019-05-29T03:08:12.554Z,99138.52
2019-05-29T03:10:41.959Z,99141.83
2019-05-29T03:13:11.154Z,99151.84
2019-05-29T03:15:40.555Z,99147.87
2019-05-29T03:18:10.062Z,99155.28
2019-05-29T03:20:39.559Z,99162.82
2019-05-29T03:23:08.976Z,99169.80
2019-05-29T03:25:38.474Z,99176.69
2019-05-29T03:28:07.554Z,99182.58
2019-05-29T03:30:44.945Z,99179.77
2019-05-29T03:33:07.904Z,99188.57
2019-05-29T03:35:46.134Z,99191.06
2019-05-29T03:38:08.547Z,99197.12
2019-05-29T03:40:38.686Z,99207.17
2019-05-29T03:43:08.895Z,99212.21
2019-05-29T03:45:38.295Z,99221.81
2019-05-29T03:48:07.598Z,99232.31
2019-05-29T03:50:38.180Z,99234.70
2019-05-29T03:53:07.637Z,99240.70
2019-05-29T03:55:37.928Z,99241.08
2019-05-29T03:58:07.356Z,99250.36
2019-05-29T04:00:45.464Z,99256.77
2019-05-29T04:03:07.697Z,99257.87
2019-05-29T04:05:38.028Z,99259.13
2019-05-29T04:08:07.513Z,99272.01
2019-05-29T04:10:39.732Z,99274.27
2019-05-29T04:13:09.196Z,99277.21
2019-05-29T04:15:40.221Z,99280.02
2019-05-29T04:18:09.812Z,99283.97
2019-05-29T04:20:39.190Z,99280.66
2019-05-29T04:23:09.155Z,99289.30
2019-05-29T04:25:42.480Z,99295.30
2019-05-29T04:28:14.295Z,99298.64
2019-05-29T04:30:45.133Z,99303.47
2019-05-29T04:33:14.317Z,99307.73
2019-05-29T04:35:43.726Z,99309.38
2019-05-29T04:38:12.835Z,99315.16
2019-05-29T04:40:42.205Z,99314.20
2019-05-29T04:43:11.512Z,99315.75
2019-05-29T04:45:40.934Z,99319.34
2019-05-29T04:48:10.013Z,99323.67
2019-05-29T04:50:40.598Z,99328.91
2019-05-29T04:53:10.454Z,99335.73
2019-05-29T04:55:39.459Z,99342.11
2019-05-29T04:58:08.614Z,99339.84
2019-05-29T05:00:39.255Z,99344.23
2019-05-29T05:03:08.800Z,99347.19
2019-05-29T05:05:38.024Z,99353.13
2019-05-29T05:08:07.272Z,99358.50
2019-05-29T05:10:41.359Z,99348.11
2019-05-29T05:13:10.907Z,99356.35
2019-05-29T05:15:40.417Z,99361.69
2019-05-29T05:18:09.871Z,99356.44
2019-05-29T05:20:40.367Z,99362.39
2019-05-29T05:23:09.994Z,99350.09
2019-05-29T05:25:40.861Z,99360.92
2019-05-29T05:28:10.434Z,99366.11
2019-05-29T05:30:40.807Z,99372.59
2019-05-29T05:33:10.403Z,99365.47
2019-05-29T05:35:40.736Z,99369.45
2019-05-29T05:38:10.557Z,99379.97
2019-05-29T05:40:42.700Z,99376.09
2019-05-29T05:43:23.144Z,99382.84
2019-05-29T05:45:42.243Z,99384.74
2019-05-29T05:48:11.432Z,99397.66
2019-05-29T05:50:41.512Z,99389.48
2019-05-29T05:53:10.657Z,99405.03
2019-05-29T05:55:40.055Z,99410.77
2019-05-29T05:58:09.461Z,99415.50
2019-05-29T06:00:39.911Z,99419.48
2019-05-29T06:03:09.256Z,99415.47
2019-05-29T06:05:38.735Z,99417.30
2019-05-29T06:08:08.074Z,99426.97
2019-05-29T06:10:38.207Z,99419.77
2019-05-29T06:13:07.794Z,99426.40
2019-05-29T06:15:37.115Z,99422.89
2019-05-29T06:18:20.644Z,99423.14
2019-05-29T06:20:38.898Z,99422.92
2019-05-29T06:23:08.474Z,99439.44
2019-05-29T06:25:39.955Z,99442.26
2019-05-29T06:28:08.919Z,99444.31
2019-05-29T06:30:40.503Z,99446.48
2019-05-29T06:33:09.355Z,99447.67
2019-05-29T06:35:39.619Z,99443.84
2019-05-29T06:38:09.395Z,99449.22
2019-05-29T06:40:44.023Z,99452.47
2019-05-29T06:43:24.596Z,99459.95
2019-05-29T06:45:54.595Z,99453.14
2019-05-29T06:48:41.559Z,99461.75
2019-05-29T06:50:57.639Z,99465.63
2019-05-29T06:53:27.335Z,99480.42
2019-05-29T06:55:57.948Z,99474.20
2019-05-29T06:58:27.571Z,99488.13
2019-05-29T07:00:56.950Z,99495.74
2019-05-29T07:03:26.356Z,99495.42
2019-05-29T07:05:55.660Z,99494.95
2019-05-29T07:08:38.152Z,99502.98
2019-05-29T07:10:55.798Z,99504.15
2019-05-29T07:13:25.110Z,99506.01
2019-05-29T07:15:54.596Z,99510.84
2019-05-29T07:18:23.955Z,99516.14
2019-05-29T07:20:53.194Z,99516.62
2019-05-29T07:23:22.373Z,99514.06
2019-05-29T07:25:51.677Z,99517.05
2019-05-29T07:28:21.112Z,99523.10
2019-05-29T07:31:00.508Z,99527.84
2019-05-29T07:33:21.413Z,99525.45
2019-05-29T07:35:50.713Z,99536.86
2019-05-29T07:38:20.133Z,99539.11
2019-05-29T07:40:50.165Z,99546.70
2019-05-29T07:43:19.663Z,99549.66
2019-05-29T07:45:48.838Z,99553.50
2019-05-29T07:48:18.238Z,99567.82
2019-05-29T07:50:48.460Z,99563.57
2019-05-29T07:53:18.380Z,99567.16
2019-05-29T07:55:48.874Z,99563.73
2019-05-29T07:58:18.768Z,99578.03
2019-05-29T08:01:09.270Z,99581.27
2019-05-29T08:03:19.363Z,99587.65
2019-05-29T08:05:51.434Z,99590.25
2019-05-29T08:08:19.495Z,99588.84
2019-05-29T08:10:49.744Z,99597.45
2019-05-29T08:13:19.336Z,99602.20
2019-05-29T08:15:58.482Z,99607.41
2019-05-29T08:18:19.537Z,99608.20
2019-05-29T08:20:48.855Z,99613.94
2019-05-29T08:23:18.156Z,99618.84
2019-05-29T08:25:47.720Z,99622.77
2019-05-29T08:28:17.374Z,99613.70
2019-05-29T08:30:51.960Z,99610.91
2019-05-29T08:33:17.814Z,99626.07
2019-05-29T08:35:47.550Z,99624.79
2019-05-29T08:38:17.954Z,99622.17
2019-05-29T08:40:47.461Z,99631.69
2019-05-29T08:43:16.755Z,99622.34
2019-05-29T08:45:46.013Z,99621.55
2019-05-29T08:48:15.333Z,99629.81
2019-05-29T08:50:45.491Z,99630.28
2019-05-29T08:53:15.274Z,99624.28
2019-05-29T08:55:46.062Z,99639.48
2019-05-29T08:58:15.618Z,99645.13
2019-05-29T09:00:48.546Z,99647.83
2019-05-29T09:03:16.055Z,99657.77
2019-05-29T09:05:46.573Z,99658.87
2019-05-29T09:08:16.275Z,99663.02
2019-05-29T09:10:47.115Z,99661.84
2019-05-29T09:13:17.565Z,99665.03
2019-05-29T09:15:46.694Z,99666.97
2019-05-29T09:18:17.046Z,99674.13
2019-05-29T09:21:02.026Z,99677.06
2019-05-29T09:23:18.879Z,99684.03
2019-05-29T09:25:48.456Z,99679.18
2019-05-29T09:28:18.347Z,99680.13
2019-05-29T09:30:47.475Z,99691.20
2019-05-29T09:33:18.747Z,99691.20
2019-05-29T09:35:48.115Z,99698.59
2019-05-29T09:38:18.675Z,99700.61
2019-05-29T09:40:48.354Z,99707.45
2019-05-29T09:43:18.682Z,99706.20
2019-05-29T09:45:48.544Z,99708.48
2019-05-29T09:48:20.195Z,99722.77
2019-05-29T09:50:50.761Z,99725.42
2019-05-29T09:53:20.378Z,99723.39
2019-05-29T09:55:49.544Z,99721.61
2019-05-29T09:58:18.977Z,99726.58
2019-05-29T10:01:07.228Z,99730.94
2019-05-29T10:03:19.416Z,99736.28
2019-05-29T10:05:48.834Z,99734.76
2019-05-29T10:08:18.336Z,99737.88
2019-05-29T10:10:47.528Z,99738.84
2019-05-29T10:13:16.872Z,99740.23
2019-05-29T10:15:46.316Z,99739.56
2019-05-29T10:18:31.461Z,99746.78
2019-05-29T10:20:46.682Z,99760.45
2019-05-29T10:23:16.075Z,99759.91
2019-05-29T10:25:45.157Z,99761.22
2019-05-29T10:28:14.456Z,99761.03
2019-05-29T10:30:44.426Z,99762.28
2019-05-29T10:33:14.894Z,99764.33
2019-05-29T10:35:44.755Z,99766.88
2019-05-29T10:38:14.519Z,99773.39
2019-05-29T10:40:50.127Z,99776.97
2019-05-29T10:43:19.673Z,99771.29
2019-05-29T10:45:48.021Z,99773.42
2019-05-29T10:48:17.157Z,99775.55
2019-05-29T10:50:49.907Z,99787.62
2019-05-29T10:53:17.388Z,99784.38
2019-05-29T10:55:46.795Z,99771.09
2019-05-29T10:58:15.974Z,99772.42
2019-05-29T11:00:45.910Z,99785.91
2019-05-29T11:03:16.219Z,99787.53
2019-05-29T11:05:45.651Z,99786.50
2019-05-29T11:08:14.912Z,99790.39
2019-05-29T11:10:44.315Z,99790.61
2019-05-29T11:13:13.495Z,99782.31
2019-05-29T11:15:42.915Z,99788.55
2019-05-29T11:18:12.333Z,99788.73
2019-05-29T11:20:41.517Z,99779.34
2019-05-29T11:23:11.035Z,99789.36
2019-05-29T11:25:40.212Z,99784.80
2019-05-29T11:28:09.614Z,99794.95
2019-05-29T11:30:38.815Z,99793.65
2019-05-29T11:33:08.321Z,99789.19
2019-05-29T11:35:38.132Z,99794.17
2019-05-29T11:38:07.435Z,99790.33
2019-05-29T11:40:37.001Z,99787.03
2019-05-29T11:43:06.558Z,99782.48
2019-05-29T11:45:36.135Z,99786.64
2019-05-29T11:48:05.968Z,99785.69
2019-05-29T11:50:35.156Z,99788.33
2019-05-29T11:53:04.554Z,99792.98
2019-05-29T11:55:33.754Z,99795.73
2019-05-29T11:58:02.955Z,99789.08
2019-05-29T12:00:32.554Z,99788.96
2019-05-29T12:03:01.870Z,99793.48
2019-05-29T12:05:31.054Z,99788.64
2019-05-29T12:08:01.868Z,99787.70
2019-05-29T12:10:31.495Z,99791.12
2019-05-29T12:13:01.741Z,99791.70
2019-05-29T12:15:30.913Z,99791.52
2019-05-29T12:18:22.232Z,99795.61
2019-05-29T12:20:31.255Z,99798.06
2019-05-29T12:23:24.129Z,99784.48
2019-05-29T12:25:32.106Z,99799.88
2019-05-29T12:28:01.483Z,99796.69
2019-05-29T12:30:31.500Z,99796.79
2019-05-29T12:33:01.167Z,99796.85
2019-05-29T12:35:30.834Z,99809.70
2019-05-29T12:38:01.382Z,99798.98
2019-05-29T12:40:31.065Z,99803.97
2019-05-29T12:43:01.934Z,99806.38
2019-05-29T12:45:31.515Z,99806.37
2019-05-29T12:48:09.911Z,99811.02
2019-05-29T12:50:34.586Z,99811.22
2019-05-29T12:53:03.929Z,99809.31
2019-05-29T12:55:33.333Z,99814.13
2019-05-29T12:58:04.315Z,99813.73
2019-05-29T13:00:33.656Z,99805.84
2019-05-29T13:03:03.773Z,99808.77
2019-05-29T13:05:34.414Z,99801.40
2019-05-29T13:08:05.146Z,99803.48
2019-05-29T13:10:34.946Z,99801.55
2019-05-29T13:13:10.115Z,99805.89
2019-05-29T13:15:35.593Z,99803.73
2019-05-29T13:18:09.246Z,99806.62
2019-05-29T13:20:35.930Z,99797.85
2019-05-29T13:23:07.349Z,99799.59
2019-05-29T13:25:38.020Z,99802.10
2019-05-29T13:28:08.340Z,99799.04
2019-05-29T13:30:40.514Z,99806.93
2019-05-29T13:33:10.547Z,99808.25
2019-05-29T13:35:40.199Z,99813.49
2019-05-29T13:38:09.637Z,99802.58
2019-05-29T13:40:39.027Z,99808.69
2019-05-29T13:43:14.882Z,99811.33
2019-05-29T13:45:39.995Z,99814.64
2019-05-29T13:48:09.189Z,99818.52
2019-05-29T13:50:38.894Z,99809.61
2019-05-29T13:53:08.513Z,99810.25
2019-05-29T13:55:37.733Z,99810.89
2019-05-29T13:58:07.818Z,99822.13
2019-05-29T14:00:37.831Z,99817.20
2019-05-29T14:03:09.208Z,99812.56
2019-05-29T14:05:39.615Z,99813.34
2019-05-29T14:08:09.189Z,99814.78
2019-05-29T14:10:38.994Z,99814.67
2019-05-29T14:13:09.338Z,99820.84
2019-05-29T14:15:38.853Z,99817.84
2019-05-29T14:18:08.995Z,99816.77
2019-05-29T14:20:38.367Z,99812.53
2019-05-29T14:23:07.672Z,99821.87
2019-05-29T14:25:37.844Z,99814.73
2019-05-29T14:28:08.676Z,99820.11
2019-05-29T14:30:38.237Z,99826.50
2019-05-29T14:33:12.585Z,99825.43
2019-05-29T14:35:38.834Z,99831.66
2019-05-29T14:38:11.598Z,99826.97
2019-05-29T14:40:39.122Z,99831.16
2019-05-29T14:43:11.720Z,99832.08
2019-05-29T14:45:39.353Z,99838.00
2019-05-29T14:48:10.110Z,99843.80
2019-05-29T14:50:39.595Z,99843.06
2019-05-29T14:53:09.412Z,99849.23
2019-05-29T14:55:42.097Z,99841.19
2019-05-29T14:58:11.929Z,99831.58
2019-05-29T15:00:41.389Z,99846.35
2019-05-29T15:03:11.494Z,99845.47
2019-05-29T15:05:41.121Z,99844.97
2019-05-29T15:08:12.356Z,99838.20
2019-05-29T15:10:41.772Z,99840.58
2019-05-29T15:13:13.101Z,99837.96
2019-05-29T15:15:42.014Z,99839.38
2019-05-29T15:18:16.349Z,99839.24
2019-05-29T15:20:42.253Z,99840.23
2019-05-29T15:23:11.578Z,99846.01
2019-05-29T15:25:40.954Z,99841.75
2019-05-29T15:28:13.623Z,99841.30
2019-05-29T15:30:41.175Z,99837.37
2019-05-29T15:33:10.882Z,99838.13
2019-05-29T15:35:40.813Z,99842.72
2019-05-29T15:38:10.784Z,99843.17
2019-05-29T15:40:40.215Z,99848.70
2019-05-29T15:43:10.750Z,99856.79
2019-05-29T15:45:40.345Z,99858.19
2019-05-29T15:48:11.026Z,99857.80
2019-05-29T15:50:40.434Z,99858.84
2019-05-29T15:53:11.023Z,99865.81
2019-05-29T15:55:40.304Z,99871.55
2019-05-29T15:58:11.116Z,99874.83
2019-05-29T16:00:40.341Z,99867.16
2019-05-29T16:03:09.765Z,99872.52
2019-05-29T16:05:39.154Z,99878.98
2019-05-29T16:08:09.824Z,99877.02
2019-05-29T16:10:39.596Z,99879.87
2019-05-29T16:13:08.899Z,99885.20
2019-05-29T16:15:38.194Z,99885.63
2019-05-29T16:18:18.983Z,99893.52
2019-05-29T16:20:38.734Z,99897.91
2019-05-29T16:23:08.135Z,99897.68
2019-05-29T16:25:40.491Z,99895.50
2019-05-29T16:28:08.582Z,99897.88
2019-05-29T16:30:37.874Z,99894.70
2019-05-29T16:33:07.312Z,99896.95
2019-05-29T16:35:37.702Z,99906.65
2019-05-29T16:38:07.315Z,99902.48
2019-05-29T16:40:36.604Z,99905.00
2019-05-29T16:43:05.922Z,99902.31
2019-05-29T16:45:35.415Z,99900.71
2019-05-29T16:48:04.825Z,99911.42
2019-05-29T16:50:34.334Z,99912.37
2019-05-29T16:53:03.842Z,99909.83
2019-05-29T16:55:33.002Z,99909.02
2019-05-29T16:58:02.511Z,99921.16
2019-05-29T17:00:31.834Z,99922.91
2019-05-29T17:03:01.235Z,99924.31
2019-05-29T17:05:31.250Z,99924.67
2019-05-29T17:08:00.779Z,99928.93
2019-05-29T17:10:37.229Z,99930.27
2019-05-29T17:13:07.630Z,99936.69
2019-05-29T17:15:37.254Z,99933.37
2019-05-29T17:18:06.755Z,99937.25
2019-05-29T17:20:41.377Z,99950.23
2019-05-29T17:23:10.779Z,99950.93
2019-05-29T17:25:40.292Z,99959.55
2019-05-29T17:28:10.096Z,99964.56
2019-05-29T17:30:39.394Z,99971.27
2019-05-29T17:33:08.992Z,99965.47
2019-05-29T17:35:38.618Z,99966.20
2019-05-29T17:38:08.217Z,99969.60
2019-05-29T17:40:37.511Z,99967.17
2019-05-29T17:43:06.917Z,99970.45
2019-05-29T17:45:36.715Z,99965.54
2019-05-29T17:48:06.334Z,99979.02
2019-05-29T17:50:35.713Z,99974.09
2019-05-29T17:53:05.211Z,99978.48
2019-05-29T17:55:35.142Z,99977.48
2019-05-29T17:58:04.449Z,99982.09
2019-05-29T18:00:33.950Z,99975.16
2019-05-29T18:03:03.362Z,99986.14
2019-05-29T18:05:32.634Z,99986.33
2019-05-29T18:08:02.274Z,99993.45
2019-05-29T18:10:31.763Z,99987.24
2019-05-29T18:13:01.273Z,99991.34
2019-05-29T18:15:30.555Z,99997.81
2019-05-29T18:17:59.958Z,99998.75
2019-05-29T18:20:29.264Z,100001.62
2019-05-29T18:22:58.876Z,100002.84
2019-05-29T18:25:28.397Z,100003.64
2019-05-29T18:27:57.993Z,100004.33
2019-05-29T18:30:28.797Z,100004.38
2019-05-29T18:32:58.159Z,100013.61
2019-05-29T18:35:28.981Z,100016.41
2019-05-29T18:37:58.678Z,100023.20
2019-05-29T18:40:28.490Z,100016.77
2019-05-29T18:42:58.494Z,100023.45
2019-05-29T18:45:28.415Z,100021.38
2019-05-29T18:47:58.789Z,100028.47
2019-05-29T18:50:28.145Z,100030.66
2019-05-29T18:52:57.734Z,100039.22
2019-05-29T18:55:27.354Z,100042.47
2019-05-29T18:57:56.714Z,100044.59
2019-05-29T19:00:27.512Z,100047.92
2019-05-29T19:02:57.094Z,100052.33
2019-05-29T19:05:27.704Z,100054.01
2019-05-29T19:07:57.425Z,100060.98
2019-05-29T19:10:27.725Z,100069.16
2019-05-29T19:12:57.356Z,100074.86
2019-05-29T19:15:27.799Z,100076.58
2019-05-29T19:17:57.494Z,100079.94
2019-05-29T19:20:26.802Z,100077.66
2019-05-29T19:22:56.198Z,100089.34
2019-05-29T19:25:26.707Z,100093.33
2019-05-29T19:27:56.142Z,100095.05
2019-05-29T19:30:26.935Z,100098.62
2019-05-29T19:32:56.534Z,100103.56
2019-05-29T19:35:25.993Z,100101.84
2019-05-29T19:37:55.538Z,100107.84
2019-05-29T19:40:26.030Z,100114.81
2019-05-29T19:42:55.820Z,100116.84
2019-05-29T19:45:26.561Z,100113.59
2019-05-29T19:47:56.362Z,100124.22
2019-05-29T19:50:26.688Z,100118.66
2019-05-29T19:52:56.454Z,100116.38
2019-05-29T19:55:30.234Z,100122.29
2019-05-29T19:57:57.341Z,100130.51
2019-05-29T20:00:27.949Z,100131.20
2019-05-29T20:02:57.782Z,100137.84
2019-05-29T20:05:27.292Z,100135.06
2019-05-29T20:07:57.095Z,100130.56
2019-05-29T20:10:27.176Z,100135.80
2019-05-29T20:12:56.612Z,100139.61
2019-05-29T20:15:25.776Z,100136.02
2019-05-29T20:17:55.214Z,100143.05
2019-05-29T20:20:24.721Z,100139.83
2019-05-29T20:22:54.537Z,100135.03
2019-05-29T20:25:23.820Z,100134.78
2019-05-29T20:28:05.495Z,100141.34
2019-05-29T20:30:24.375Z,100143.09
2019-05-29T20:32:53.563Z,100141.09
2019-05-29T20:35:22.984Z,100139.75
2019-05-29T20:37:52.369Z,100142.73
2019-05-29T20:40:21.784Z,100148.31
2019-05-29T20:42:51.375Z,100146.20
2019-05-29T20:45:20.902Z,100138.64
2019-05-29T20:47:50.383Z,100147.19
2019-05-29T20:50:20.914Z,100136.00
2019-05-29T20:52:50.323Z,100147.17
2019-05-29T20:55:19.835Z,100152.80
2019-05-29T20:57:49.110Z,100157.64
2019-05-29T21:00:18.838Z,100162.16
2019-05-29T21:02:48.127Z,100161.73
2019-05-29T21:05:17.733Z,100164.39
2019-05-29T21:07:47.135Z,100162.90
2019-05-29T21:10:16.534Z,100167.42
2019-05-29T21:12:47.600Z,100168.33
2019-05-29T21:15:17.359Z,100173.78
2019-05-29T21:17:46.793Z,100175.22
2019-05-29T21:20:16.617Z,100174.59
2019-05-29T21:22:45.792Z,100180.27
2019-05-29T21:25:18.988Z,100188.72
2019-05-29T21:27:49.312Z,100190.13
2019-05-29T21:30:20.556Z,100193.81
2019-05-29T21:32:49.779Z,100199.05
2019-05-29T21:35:19.262Z,100200.26
2019-05-29T21:37:48.572Z,100210.40
2019-05-29T21:40:18.063Z,100203.66
2019-05-29T21:42:47.377Z,100211.22
2019-05-29T21:45:17.279Z,100211.61
2019-05-29T21:47:47.313Z,100204.31
2019-05-29T21:50:16.896Z,100210.94
2019-05-29T21:52:46.102Z,100213.31
2019-05-29T21:55:15.493Z,100210.37
2019-05-29T21:57:47.154Z,100212.92
2019-05-29T22:00:18.514Z,100211.23
2019-05-29T22:02:48.563Z,100222.84
2019-05-29T22:05:18.953Z,100229.63
2019-05-29T22:07:48.977Z,100231.44
2019-05-29T22:10:18.675Z,100233.94
2019-05-29T22:12:47.873Z,100232.74
2019-05-29T22:15:18.045Z,100234.33
2019-05-29T22:17:47.494Z,100229.34
2019-05-29T22:20:16.794Z,100234.95
2019-05-29T22:22:46.162Z,100237.58
2019-05-29T22:25:15.797Z,100240.44
2019-05-29T22:27:44.892Z,100235.46
2019-05-29T22:30:14.394Z,100239.59
2019-05-29T22:32:43.694Z,100231.03
2019-05-29T22:35:13.200Z,100239.59
2019-05-29T22:37:42.696Z,100242.36
2019-05-29T22:40:12.914Z,100240.63
2019-05-29T22:42:42.322Z,100237.22
2019-05-29T22:45:12.134Z,100233.66
2019-05-29T22:47:41.536Z,100239.72
2019-05-29T22:50:11.855Z,100241.74
2019-05-29T22:52:41.374Z,100245.47
2019-05-29T22:55:10.872Z,100242.88
2019-05-29T22:57:40.233Z,100243.47
2019-05-29T23:00:10.397Z,100250.78
2019-05-29T23:02:39.595Z,100247.02
2019-05-29T23:05:09.814Z,100241.88
2019-05-29T23:07:39.154Z,100246.54
2019-05-29T23:10:11.793Z,100247.69
2019-05-29T23:12:41.394Z,100242.09
2019-05-29T23:15:10.993Z,100239.39
2019-05-29T23:17:40.297Z,100240.54
2019-05-29T23:20:10.015Z,100238.75
2019-05-29T23:22:39.295Z,100235.25
2019-05-29T23:25:08.913Z,100239.28
2019-05-29T23:27:38.105Z,100243.81
2019-05-29T23:30:08.835Z,100242.60
2019-05-29T23:32:38.236Z,100252.71
2019-05-29T23:35:08.475Z,100251.16
2019-05-29T23:37:38.074Z,100247.79
2019-05-29T23:40:08.104Z,100249.19
2019-05-29T23:42:37.274Z,100250.52
2019-05-29T23:45:08.407Z,100252.23
2019-05-29T23:47:37.722Z,100253.86
2019-05-29T23:50:08.361Z,100254.45
2019-05-29T23:52:37.755Z,100253.45
2019-05-29T23:55:09.305Z,100251.65
2019-05-29T23:57:38.854Z,100249.49
